Star Herdla — LAVD4 — position and weather

sailwx.info

Track history (hours):
 
Tides and Currents Weather Stations Pressure Air Temp Water Temp Dewpoint Dewpoint Depression Visibility Wind Speed Wind Dir Waves Ship Positions

Star Herdla

Last reported at 2014-Dec-21 13:31 UTC. Time now 2014-Dec-21 14:23 UTC.
Position N 51°15' E 004°14'.

Type: Cargo ship. MMSI: 258954000.

Date/timePositionNaut miles runAvg speedWind from/ knotsBaromVisibWave heightAir tempDewpointWater temp
2014-Dec-21 13:31N 51°15' E 004°14'0 0.0
2014-Dec-21 12:31N 51°15' E 004°14'0 0.0
2014-Dec-21 11:31N 51°15' E 004°14'0 0.0
2014-Dec-21 10:31N 51°15' E 004°14'0 0.0
2014-Dec-21 09:31N 51°15' E 004°14'0 0.0
2014-Dec-21 08:31N 51°15' E 004°14'0 0.0
2014-Dec-21 07:31N 51°15' E 004°14'0 0.0
2014-Dec-21 06:25N 51°15' E 004°14'0 0.0
2014-Dec-21 05:31N 51°15' E 004°14'0 0.0
2014-Dec-21 04:31N 51°15' E 004°14'0 0.0
2014-Dec-21 03:31N 51°15' E 004°14'0 0.0
2014-Dec-21 02:25N 51°15' E 004°14'0 0.0
2014-Dec-21 01:31N 51°15' E 004°14'0 0.0
2014-Dec-21 00:31N 51°15' E 004°14'0 0.0
2014-Dec-20 23:31N 51°15' E 004°14'0 0.0
2014-Dec-20 22:31N 51°15' E 004°14'0 0.0
2014-Dec-20 21:31N 51°15' E 004°14'0 0.0
2014-Dec-20 20:31N 51°15' E 004°14'0 0.0
2014-Dec-20 19:31N 51°15' E 004°14'0 0.0
2014-Dec-20 18:31N 51°15' E 004°14'0 0.0
2014-Dec-20 17:31N 51°15' E 004°14'0 0.0
2014-Dec-20 16:31N 51°15' E 004°14'0 0.0
2014-Dec-20 15:16N 51°15' E 004°14'0 0.0
2014-Dec-20 14:28N 51°15' E 004°14'0 0.0
2014-Dec-20 13:31N 51°15' E 004°14'0 0.0
2014-Dec-20 12:31N 51°15' E 004°14'0 0.0
2014-Dec-20 11:22N 51°15' E 004°14'0 0.0
2014-Dec-20 10:31N 51°15' E 004°14'0 0.0
2014-Dec-20 09:28N 51°15' E 004°14'0 0.0
2014-Dec-20 08:28N 51°15' E 004°14'0 0.0
2014-Dec-20 07:28N 51°15' E 004°14'0 0.0
2014-Dec-20 06:31N 51°15' E 004°14'1 0.7
2014-Dec-20 05:33N 51°16' E 004°15'1 1.4
2014-Dec-20 04:34N 51°16' E 004°17'2 2.3
2014-Dec-20 03:34N 51°18' E 004°17'7 6.5
2014-Dec-20 02:33N 51°24' E 004°12'8 8.5
2014-Dec-20 01:33N 51°26' E 003°58'10 9.7
2014-Dec-20 00:33N 51°22' E 003°44'9 9.0
2014-Dec-19 23:33N 51°27' E 003°31'9 9.0
2014-Dec-19 22:33N 51°35' E 003°24'7 6.3
2014-Dec-19 21:29N 51°40' E 003°17'6 5.5
2014-Dec-19 20:28N 51°45' E 003°14'24 7.5
2014-Dec-19 17:12N 52°04' E 003°40'812.5
2014-Dec-19 16:34N 52°03' E 003°53'7 7.1
2014-Dec-19 15:34N 51°60' E 004°03'1010.3
2014-Dec-19 14:34N 51°54' E 004°17'3 3.1
2014-Dec-19 13:31N 51°54' E 004°22'0 0.0
2014-Dec-19 12:28N 51°54' E 004°22'0 0.0
2014-Dec-19 11:31N 51°54' E 004°22'0 0.0
2014-Dec-19 10:31N 51°54' E 004°22'0 0.0
2014-Dec-19 09:31N 51°54' E 004°22'0 0.0
2014-Dec-19 08:31N 51°54' E 004°22'0 0.0
2014-Dec-19 07:31N 51°54' E 004°22'0 0.0
2014-Dec-19 06:31N 51°54' E 004°22'0 0.0
2014-Dec-19 05:31N 51°54' E 004°22'0 0.0
2014-Dec-19 04:31N 51°54' E 004°22'0 0.0
2014-Dec-19 03:31N 51°54' E 004°22'0 0.0
2014-Dec-19 02:31N 51°54' E 004°22'0 0.0
2014-Dec-19 01:31N 51°54' E 004°22'0 0.0
2014-Dec-19 00:31N 51°54' E 004°22'0 0.0
2014-Dec-18 23:31N 51°54' E 004°22'0 0.0
2014-Dec-18 22:31N 51°54' E 004°22'0 0.0
2014-Dec-18 21:31N 51°54' E 004°22'0 0.4
2014-Dec-18 20:33N 51°54' E 004°22'2 1.6
2014-Dec-18 19:33N 51°53' E 004°24'0 0.0
2014-Dec-18 18:33N 51°53' E 004°24'0 0.0
2014-Dec-18 17:30N 51°53' E 004°24'0 0.0
2014-Dec-18 16:30N 51°53' E 004°24'0 0.0
2014-Dec-18 15:33N 51°53' E 004°24'0 0.0
2014-Dec-18 14:33N 51°53' E 004°24'0 0.0
2014-Dec-18 13:33N 51°53' E 004°24'0 0.0
2014-Dec-18 12:33N 51°53' E 004°24'0 0.0
2014-Dec-18 11:34N 51°53' E 004°24'0 0.0
2014-Dec-18 10:33N 51°53' E 004°24'0 0.0
2014-Dec-18 09:33N 51°53' E 004°24'0 0.0
2014-Dec-18 08:33N 51°53' E 004°24'0 0.0
2014-Dec-18 07:33N 51°53' E 004°24'0 0.0
2014-Dec-18 06:33N 51°53' E 004°24'0 0.0
2014-Dec-18 05:33N 51°53' E 004°24'0 0.0
2014-Dec-18 04:30N 51°53' E 004°24'0 0.0
2014-Dec-18 03:33N 51°53' E 004°24'0 0.0
2014-Dec-18 02:33N 51°53' E 004°24'0 0.0
2014-Dec-18 01:33N 51°53' E 004°24'0 0.0
2014-Dec-18 00:33N 51°53' E 004°24'0 0.0
2014-Dec-17 23:34N 51°53' E 004°24'0 0.0
2014-Dec-17 22:33N 51°53' E 004°24'0 0.0
2014-Dec-17 21:33N 51°53' E 004°24'0 0.0
2014-Dec-17 20:33N 51°53' E 004°24'0 0.0
2014-Dec-17 19:33N 51°53' E 004°24'0 0.0
2014-Dec-17 18:33N 51°53' E 004°24'0 0.0
2014-Dec-17 17:33N 51°53' E 004°24'0 0.0
2014-Dec-17 16:33N 51°53' E 004°24'0 0.0
2014-Dec-17 15:33N 51°53' E 004°24'0 0.0
2014-Dec-17 14:33N 51°53' E 004°24'0 0.0
2014-Dec-17 13:33N 51°53' E 004°24'0 0.0
2014-Dec-17 12:33N 51°53' E 004°24'0 0.4
2014-Dec-17 11:33N 51°53' E 004°24'8 8.3
2014-Dec-17 10:33N 51°56' E 004°12'1211.5
2014-Dec-17 09:33N 52°00' E 003°54'9 8.8
2014-Dec-17 08:32N 51°59' E 003°40'1515.2
2014-Dec-17 07:33N 51°54' E 003°17'1616.4
2014-Dec-17 06:33N 51°49' E 002°52'1515.3
2014-Dec-17 05:33N 51°41' E 002°31'1615.6
2014-Dec-17 04:30N 51°29' E 002°13'1414.8
2014-Dec-17 03:34N 51°16' E 002°05'1514.7
2014-Dec-17 02:33N 51°07' E 001°46'1414.3
2014-Dec-17 01:34N 50°57' E 001°31'49115.5
2014-Dec-15 18:00N 48°24' W 010°30'9515.9 310 / 231016.0 0.3 11.011.012.0
2014-Dec-15 12:00N 47°48' W 012°42'9916.4 280 / 221020.0 0.3 12.012.012.0
2014-Dec-15 06:00N 47°30' W 015°06'9816.4 280 / 221020.0 5.4 12.012.012.0
2014-Dec-15 00:00N 47°00' W 017°24'8814.6 270 / 221024.0 5.4 12.012.012.0
2014-Dec-14 18:00N 46°30' W 019°24'9415.7 280 / 241023.0 5.4 11.511.012.0
2014-Dec-14 12:00N 46°06' W 021°36'8914.8 280 / 241026.0 2.2 13.013.013.0
2014-Dec-14 06:00N 45°36' W 023°36'46615.5 280 / 221027.0 5.4 11.511.012.0
2014-Dec-13 00:00N 43°30' W 034°06'9115.1 150 / 151039.0 5.4 11.0 5.010.0
2014-Dec-12 18:00N 43°06' W 036°06'8514.1 100 / 191035.0 5.4 1.012.0 8.012.0
2014-Dec-12 12:00N 42°36' W 037°54'17915.0 080 / 281034.0 5.4 1.013.011.013.0
2014-Dec-12 00:00N 41°36' W 041°42'10116.9 150 / 111029.0 5.4 19.018.020.0
2014-Dec-11 18:00N 41°00' W 043°48'   160 / 131027.0 5.4 1.020.017.020.0
Track history (hours):
 
Tides and Currents Weather Stations Pressure Air Temp Water Temp Dewpoint Dewpoint Depression Visibility Wind Speed Wind Dir Waves Ship Positions

Star Herdla

Last reported at 2014-Dec-21 13:31 UTC. Time now 2014-Dec-21 14:23 UTC.
Position N 51°15' E 004°14'.

Type: Cargo ship. MMSI: 258954000.

Date/timePositionNaut miles runAvg speedWind from/ knotsBaromVisibWave heightAir tempDewpointWater temp
2014-Dec-21 13:31N 51°15' E 004°14'0 0.0
2014-Dec-21 12:31N 51°15' E 004°14'0 0.0
2014-Dec-21 11:31N 51°15' E 004°14'0 0.0
2014-Dec-21 10:31N 51°15' E 004°14'0 0.0
2014-Dec-21 09:31N 51°15' E 004°14'0 0.0
2014-Dec-21 08:31N 51°15' E 004°14'0 0.0
2014-Dec-21 07:31N 51°15' E 004°14'0 0.0
2014-Dec-21 06:25N 51°15' E 004°14'0 0.0
2014-Dec-21 05:31N 51°15' E 004°14'0 0.0
2014-Dec-21 04:31N 51°15' E 004°14'0 0.0
2014-Dec-21 03:31N 51°15' E 004°14'0 0.0
2014-Dec-21 02:25N 51°15' E 004°14'0 0.0
2014-Dec-21 01:31N 51°15' E 004°14'0 0.0
2014-Dec-21 00:31N 51°15' E 004°14'0 0.0
2014-Dec-20 23:31N 51°15' E 004°14'0 0.0
2014-Dec-20 22:31N 51°15' E 004°14'0 0.0
2014-Dec-20 21:31N 51°15' E 004°14'0 0.0
2014-Dec-20 20:31N 51°15' E 004°14'0 0.0
2014-Dec-20 19:31N 51°15' E 004°14'0 0.0
2014-Dec-20 18:31N 51°15' E 004°14'0 0.0
2014-Dec-20 17:31N 51°15' E 004°14'0 0.0
2014-Dec-20 16:31N 51°15' E 004°14'0 0.0
2014-Dec-20 15:16N 51°15' E 004°14'0 0.0
2014-Dec-20 14:28N 51°15' E 004°14'0 0.0
2014-Dec-20 13:31N 51°15' E 004°14'0 0.0
2014-Dec-20 12:31N 51°15' E 004°14'0 0.0
2014-Dec-20 11:22N 51°15' E 004°14'0 0.0
2014-Dec-20 10:31N 51°15' E 004°14'0 0.0
2014-Dec-20 09:28N 51°15' E 004°14'0 0.0
2014-Dec-20 08:28N 51°15' E 004°14'0 0.0
2014-Dec-20 07:28N 51°15' E 004°14'0 0.0
2014-Dec-20 06:31N 51°15' E 004°14'1 0.7
2014-Dec-20 05:33N 51°16' E 004°15'1 1.4
2014-Dec-20 04:34N 51°16' E 004°17'2 2.3
2014-Dec-20 03:34N 51°18' E 004°17'7 6.5
2014-Dec-20 02:33N 51°24' E 004°12'8 8.5
2014-Dec-20 01:33N 51°26' E 003°58'10 9.7
2014-Dec-20 00:33N 51°22' E 003°44'9 9.0
2014-Dec-19 23:33N 51°27' E 003°31'9 9.0
2014-Dec-19 22:33N 51°35' E 003°24'7 6.3
2014-Dec-19 21:29N 51°40' E 003°17'6 5.5
2014-Dec-19 20:28N 51°45' E 003°14'24 7.5
2014-Dec-19 17:12N 52°04' E 003°40'812.5
2014-Dec-19 16:34N 52°03' E 003°53'7 7.1
2014-Dec-19 15:34N 51°60' E 004°03'1010.3
2014-Dec-19 14:34N 51°54' E 004°17'3 3.1
2014-Dec-19 13:31N 51°54' E 004°22'0 0.0
2014-Dec-19 12:28N 51°54' E 004°22'0 0.0
2014-Dec-19 11:31N 51°54' E 004°22'0 0.0
2014-Dec-19 10:31N 51°54' E 004°22'0 0.0
2014-Dec-19 09:31N 51°54' E 004°22'0 0.0
2014-Dec-19 08:31N 51°54' E 004°22'0 0.0
2014-Dec-19 07:31N 51°54' E 004°22'0 0.0
2014-Dec-19 06:31N 51°54' E 004°22'0 0.0
2014-Dec-19 05:31N 51°54' E 004°22'0 0.0
2014-Dec-19 04:31N 51°54' E 004°22'0 0.0
2014-Dec-19 03:31N 51°54' E 004°22'0 0.0
2014-Dec-19 02:31N 51°54' E 004°22'0 0.0
2014-Dec-19 01:31N 51°54' E 004°22'0 0.0
2014-Dec-19 00:31N 51°54' E 004°22'0 0.0
2014-Dec-18 23:31N 51°54' E 004°22'0 0.0
2014-Dec-18 22:31N 51°54' E 004°22'0 0.0
2014-Dec-18 21:31N 51°54' E 004°22'0 0.4
2014-Dec-18 20:33N 51°54' E 004°22'2 1.6
2014-Dec-18 19:33N 51°53' E 004°24'0 0.0
2014-Dec-18 18:33N 51°53' E 004°24'0 0.0
2014-Dec-18 17:30N 51°53' E 004°24'0 0.0
2014-Dec-18 16:30N 51°53' E 004°24'0 0.0
2014-Dec-18 15:33N 51°53' E 004°24'0 0.0
2014-Dec-18 14:33N 51°53' E 004°24'0 0.0
2014-Dec-18 13:33N 51°53' E 004°24'0 0.0
2014-Dec-18 12:33N 51°53' E 004°24'0 0.0
2014-Dec-18 11:34N 51°53' E 004°24'0 0.0
2014-Dec-18 10:33N 51°53' E 004°24'0 0.0
2014-Dec-18 09:33N 51°53' E 004°24'0 0.0
2014-Dec-18 08:33N 51°53' E 004°24'0 0.0
2014-Dec-18 07:33N 51°53' E 004°24'0 0.0
2014-Dec-18 06:33N 51°53' E 004°24'0 0.0
2014-Dec-18 05:33N 51°53' E 004°24'0 0.0
2014-Dec-18 04:30N 51°53' E 004°24'0 0.0
2014-Dec-18 03:33N 51°53' E 004°24'0 0.0
2014-Dec-18 02:33N 51°53' E 004°24'0 0.0
2014-Dec-18 01:33N 51°53' E 004°24'0 0.0
2014-Dec-18 00:33N 51°53' E 004°24'0 0.0
2014-Dec-17 23:34N 51°53' E 004°24'0 0.0
2014-Dec-17 22:33N 51°53' E 004°24'0 0.0
2014-Dec-17 21:33N 51°53' E 004°24'0 0.0
2014-Dec-17 20:33N 51°53' E 004°24'0 0.0
2014-Dec-17 19:33N 51°53' E 004°24'0 0.0
2014-Dec-17 18:33N 51°53' E 004°24'0 0.0
2014-Dec-17 17:33N 51°53' E 004°24'0 0.0
2014-Dec-17 16:33N 51°53' E 004°24'0 0.0
2014-Dec-17 15:33N 51°53' E 004°24'0 0.0
2014-Dec-17 14:33N 51°53' E 004°24'0 0.0
2014-Dec-17 13:33N 51°53' E 004°24'0 0.0
2014-Dec-17 12:33N 51°53' E 004°24'0 0.4
2014-Dec-17 11:33N 51°53' E 004°24'8 8.3
2014-Dec-17 10:33N 51°56' E 004°12'1211.5
2014-Dec-17 09:33N 52°00' E 003°54'9 8.8
2014-Dec-17 08:32N 51°59' E 003°40'1515.2
2014-Dec-17 07:33N 51°54' E 003°17'1616.4
2014-Dec-17 06:33N 51°49' E 002°52'1515.3
2014-Dec-17 05:33N 51°41' E 002°31'1615.6
2014-Dec-17 04:30N 51°29' E 002°13'1414.8
2014-Dec-17 03:34N 51°16' E 002°05'1514.7
2014-Dec-17 02:33N 51°07' E 001°46'1414.3
2014-Dec-17 01:34N 50°57' E 001°31'49115.5
2014-Dec-15 18:00N 48°24' W 010°30'9515.9 310 / 231016.0 0.3 11.011.012.0
2014-Dec-15 12:00N 47°48' W 012°42'9916.4 280 / 221020.0 0.3 12.012.012.0
2014-Dec-15 06:00N 47°30' W 015°06'9816.4 280 / 221020.0 5.4 12.012.012.0
2014-Dec-15 00:00N 47°00' W 017°24'8814.6 270 / 221024.0 5.4 12.012.012.0
2014-Dec-14 18:00N 46°30' W 019°24'9415.7 280 / 241023.0 5.4 11.511.012.0
2014-Dec-14 12:00N 46°06' W 021°36'8914.8 280 / 241026.0 2.2 13.013.013.0
2014-Dec-14 06:00N 45°36' W 023°36'46615.5 280 / 221027.0 5.4 11.511.012.0
2014-Dec-13 00:00N 43°30' W 034°06'9115.1 150 / 151039.0 5.4 11.0 5.010.0
2014-Dec-12 18:00N 43°06' W 036°06'8514.1 100 / 191035.0 5.4 1.012.0 8.012.0
2014-Dec-12 12:00N 42°36' W 037°54'17915.0 080 / 281034.0 5.4 1.013.011.013.0
2014-Dec-12 00:00N 41°36' W 041°42'10116.9 150 / 111029.0 5.4 19.018.020.0
2014-Dec-11 18:00N 41°00' W 043°48'   160 / 131027.0 5.4 1.020.017.020.0

Dump ship's entire track history